Decoded Metar for PASA (SAVOONGA in AK, USA) (IATA:SVA) | Meteo·Mobile Aviation Weather
aviador You're here:

PASA Decoded Metar

SAVOONGA in AK, USA
Report Time2018-12-12 01:44:00
UTC Time2018-12-12 01:57:41
Flight Rules ifr IFR
Wind330° at 17 kt
W.Decomp.*RWY 23: 17.0 kt RCW
W.Rank330° ranks 28
Current wind is above 330° avg. (8.7)
Visibility1609 m
Phenomena:Light Snow
Clouds:Broken 015 Hf
Overcast 024 Hf
Expected CloudBase > 1,200 ft AGL from Temp-Dew spread
Ceiling1,500 ft
Temp-9°C (ISA -24)
Dew Point-12°C (79% RH)
AAT-18.3°C
QNH987 hPa
Density Alt-1,991 ft
Elevation52 ft
Report Wrong Elevation
Raw Report
PASA 120144Z AUTO 33017KT 1SM -SN BKN015 OVC024 M09/M12 A2915 RMK
AO2 P0000 FZRANO $=

Extra information for PASA:More info

Metar Taf Metar & Taf Last 4 Metars F.Rules Stats Wind Profile Meteogram Temp Stats Airport Information Weather charts Add Link Nearby VenuesMetar ALERT Operation Metar Decoded Social comments

AIRNAV info for PASA